Terminal Aerodrome Forecast
Issued by NWS Caribou, ME

Home | Current Version | Previous Version | Text Only | Print | Product List | Glossary On
Versions: 1 2 3 4 5 6 7 8 9 10 11 12 13 14 15 16 17 18 19
474
FTUS41 KCAR 211720
TAFCAR
TAF
KCAR 211720Z 2118/2218 29004KT P6SM OVC013
     FM220100 29004KT P6SM BKN015
     FM221100 34005KT P6SM BKN025
     FM221400 36008KT P6SM BKN015=

USA.gov is the U.S. government's official web portal to all federal, state and local government web resources and services.